createdAt,value
2022-12-03T00:01:34.085Z,66.40
2022-12-03T00:04:02.239Z,67.10
2022-12-03T00:06:34.486Z,65.40
2022-12-03T00:09:02.771Z,66.73
2022-12-03T00:11:30.763Z,67.47
2022-12-03T00:13:58.762Z,62.97
2022-12-03T00:16:28.247Z,65.07
2022-12-03T00:18:56.271Z,64.90
2022-12-03T00:21:24.885Z,63.50
2022-12-03T00:23:53.065Z,62.90
2022-12-03T00:26:21.141Z,60.83
2022-12-03T00:28:49.714Z,63.90
2022-12-03T00:31:17.928Z,61.70
2022-12-03T00:33:47.228Z,62.03
2022-12-03T00:36:15.188Z,64.27
2022-12-03T00:38:43.066Z,59.30
2022-12-03T00:41:11.044Z,61.63
2022-12-03T00:43:39.079Z,58.50
2022-12-03T00:46:07.384Z,59.33
2022-12-03T00:48:35.496Z,61.50
2022-12-03T00:51:04.785Z,61.40
2022-12-03T00:53:32.736Z,60.87
2022-12-03T00:56:01.682Z,63.43
2022-12-03T00:58:29.578Z,61.33
2022-12-03T01:00:57.517Z,61.03
2022-12-03T01:03:25.498Z,63.37
2022-12-03T01:05:53.415Z,62.80
2022-12-03T01:08:22.704Z,60.17
2022-12-03T01:10:50.699Z,62.30
2022-12-03T01:13:18.617Z,63.43
2022-12-03T01:15:46.642Z,62.20
2022-12-03T01:18:14.615Z,61.50
2022-12-03T01:20:42.529Z,61.00
2022-12-03T01:23:10.509Z,63.47
2022-12-03T01:25:39.748Z,62.37
2022-12-03T01:28:07.710Z,61.43
2022-12-03T01:30:55.715Z,60.80
2022-12-03T01:33:22.756Z,61.53
2022-12-03T01:35:50.636Z,61.87
2022-12-03T01:38:18.657Z,63.70
2022-12-03T01:40:49.999Z,62.73
2022-12-03T01:43:18.012Z,64.37
2022-12-03T01:45:45.915Z,63.80
2022-12-03T01:48:16.704Z,64.27
2022-12-03T01:50:45.433Z,65.10
2022-12-03T01:53:18.376Z,66.93
2022-12-03T01:55:49.069Z,70.47
2022-12-03T01:58:18.554Z,66.37
2022-12-03T02:00:46.423Z,73.07
2022-12-03T02:03:19.667Z,69.53
2022-12-03T02:05:47.672Z,72.10
2022-12-03T02:08:32.360Z,96.27
2022-12-03T02:11:06.474Z,75.40
2022-12-03T02:13:34.641Z,71.83
2022-12-03T02:16:02.700Z,79.60
2022-12-03T02:18:30.738Z,99.43
2022-12-03T02:21:06.974Z,106.03
2022-12-03T02:23:41.900Z,72.03
2022-12-03T02:26:11.696Z,81.73
2022-12-03T02:28:39.812Z,74.23
2022-12-03T02:31:08.358Z,80.10
2022-12-03T02:33:37.347Z,90.93
2022-12-03T02:36:06.009Z,76.07
2022-12-03T02:38:35.768Z,77.90
2022-12-03T02:41:08.423Z,80.33
2022-12-03T02:43:37.024Z,81.00
2022-12-03T02:46:06.751Z,80.60
2022-12-03T02:48:36.744Z,85.20
2022-12-03T02:51:08.940Z,82.70
2022-12-03T02:53:42.355Z,97.67
2022-12-03T02:56:13.064Z,76.23
2022-12-03T02:58:43.948Z,83.00
2022-12-03T03:01:12.588Z,77.80
2022-12-03T03:03:40.879Z,83.40
2022-12-03T03:06:10.322Z,76.23
2022-12-03T03:08:39.096Z,88.37
2022-12-03T03:11:07.449Z,92.80
2022-12-03T03:13:36.769Z,135.53
2022-12-03T03:16:07.547Z,77.03
2022-12-03T03:18:36.393Z,81.43
2022-12-03T03:21:05.391Z,82.90
2022-12-03T03:23:33.314Z,76.90
2022-12-03T03:26:03.991Z,96.47
2022-12-03T03:28:33.408Z,91.20
2022-12-03T03:31:05.318Z,85.03
2022-12-03T03:33:35.718Z,86.70
2022-12-03T03:36:04.345Z,82.40
2022-12-03T03:38:33.129Z,100.77
2022-12-03T03:41:03.331Z,89.13
2022-12-03T03:43:34.760Z,97.70
2022-12-03T03:46:04.828Z,95.37
2022-12-03T03:48:35.784Z,82.40
2022-12-03T03:51:09.017Z,79.07
2022-12-03T03:53:37.887Z,97.63
2022-12-03T03:56:06.723Z,108.73
2022-12-03T03:58:34.771Z,81.20
2022-12-03T04:01:02.904Z,97.97
2022-12-03T04:03:36.190Z,81.43
2022-12-03T04:06:05.886Z,86.30
2022-12-03T04:08:33.900Z,94.30
2022-12-03T04:11:19.530Z,83.80
2022-12-03T04:13:47.449Z,82.83
2022-12-03T04:16:15.436Z,87.57
2022-12-03T04:18:44.818Z,112.07
2022-12-03T04:21:32.732Z,95.60
2022-12-03T04:24:01.562Z,114.23
2022-12-03T04:26:47.439Z,119.70
2022-12-03T04:29:19.057Z,91.20
2022-12-03T04:32:04.848Z,86.20
2022-12-03T04:34:52.498Z,120.53
2022-12-03T04:37:21.043Z,80.47
2022-12-03T04:39:49.294Z,112.53
2022-12-03T04:42:17.303Z,106.17
2022-12-03T04:44:45.330Z,86.80
2022-12-03T04:47:15.331Z,92.27
2022-12-03T04:49:46.220Z,90.30
2022-12-03T04:52:16.084Z,91.00
2022-12-03T04:54:44.828Z,83.77
2022-12-03T04:57:13.231Z,90.83
2022-12-03T04:59:41.194Z,96.13
2022-12-03T05:02:09.403Z,87.10
2022-12-03T05:04:37.472Z,87.50
2022-12-03T05:07:06.781Z,92.27
2022-12-03T05:09:34.752Z,87.57
2022-12-03T05:12:03.825Z,111.23
2022-12-03T05:14:31.863Z,86.90
2022-12-03T05:16:59.980Z,87.30
2022-12-03T05:19:48.423Z,89.80
2022-12-03T05:22:16.723Z,82.53
2022-12-03T05:24:44.609Z,81.27
2022-12-03T05:27:12.494Z,80.67
2022-12-03T05:29:40.446Z,82.00
2022-12-03T05:32:08.335Z,81.50
2022-12-03T05:34:40.647Z,80.47
2022-12-03T05:37:08.590Z,79.07
2022-12-03T05:39:37.930Z,87.37
2022-12-03T05:42:23.491Z,77.23
2022-12-03T05:44:51.766Z,76.07
2022-12-03T05:47:19.864Z,76.17
2022-12-03T05:49:47.801Z,72.30
2022-12-03T05:52:15.689Z,72.57
2022-12-03T05:54:44.943Z,71.43
2022-12-03T05:57:12.913Z,70.47
2022-12-03T05:59:40.771Z,71.57
2022-12-03T06:02:08.759Z,73.87
2022-12-03T06:04:36.689Z,71.97
2022-12-03T06:07:06.623Z,73.17
2022-12-03T06:09:40.147Z,74.33
2022-12-03T06:12:09.834Z,80.37
2022-12-03T06:14:37.726Z,71.27
2022-12-03T06:17:05.896Z,71.97
2022-12-03T06:19:34.721Z,70.80
2022-12-03T06:22:02.668Z,71.30
2022-12-03T06:24:30.619Z,71.07
2022-12-03T06:26:58.608Z,70.43
2022-12-03T06:29:27.870Z,71.27
2022-12-03T06:31:55.903Z,68.53
2022-12-03T06:34:23.937Z,72.50
2022-12-03T06:36:52.116Z,71.63
2022-12-03T06:39:22.733Z,71.53
2022-12-03T06:41:50.810Z,75.43
2022-12-03T06:44:18.874Z,70.43
2022-12-03T06:46:48.256Z,67.33
2022-12-03T06:49:16.243Z,70.80
2022-12-03T06:51:44.226Z,68.87
2022-12-03T06:54:12.179Z,68.77
2022-12-03T06:56:45.113Z,66.00
2022-12-03T06:59:13.453Z,67.67
2022-12-03T07:01:41.398Z,62.50
2022-12-03T07:04:11.039Z,62.10
2022-12-03T07:06:39.031Z,65.63
2022-12-03T07:09:06.922Z,65.87
2022-12-03T07:11:40.520Z,66.27
2022-12-03T07:14:11.402Z,65.47
2022-12-03T07:16:40.332Z,68.83
2022-12-03T07:19:10.150Z,67.23
2022-12-03T07:21:38.085Z,68.90
2022-12-03T07:24:06.516Z,69.93
2022-12-03T07:26:34.553Z,68.47
2022-12-03T07:29:02.586Z,71.80
2022-12-03T07:31:30.548Z,73.97
2022-12-03T07:33:58.662Z,73.40
2022-12-03T07:36:27.925Z,70.90
2022-12-03T07:38:55.837Z,71.00
2022-12-03T07:41:23.725Z,70.37
2022-12-03T07:43:51.743Z,69.73
2022-12-03T07:46:19.712Z,70.17
2022-12-03T07:48:47.677Z,71.27
2022-12-03T07:51:15.777Z,67.20
2022-12-03T07:53:45.211Z,70.83
2022-12-03T07:56:13.122Z,74.70
2022-12-03T07:58:41.260Z,75.87
2022-12-03T08:01:10.492Z,72.63
2022-12-03T08:03:39.582Z,75.10
2022-12-03T08:06:08.026Z,72.53
2022-12-03T08:08:36.152Z,74.87
2022-12-03T08:11:06.329Z,74.70
2022-12-03T08:13:35.847Z,73.87
2022-12-03T08:16:16.663Z,87.00
2022-12-03T08:18:44.829Z,74.90
2022-12-03T08:21:14.153Z,71.00
2022-12-03T08:23:42.763Z,69.93
2022-12-03T08:26:22.510Z,80.93
2022-12-03T08:28:50.998Z,71.80
2022-12-03T08:31:21.191Z,75.40
2022-12-03T08:33:51.255Z,70.40
2022-12-03T08:36:23.189Z,71.07
2022-12-03T08:38:53.041Z,71.90
2022-12-03T08:41:37.083Z,75.47
2022-12-03T08:44:21.596Z,74.60
2022-12-03T08:46:54.081Z,76.63
2022-12-03T08:49:23.549Z,75.93
2022-12-03T08:51:57.137Z,72.87
2022-12-03T08:54:26.109Z,77.20
2022-12-03T08:56:56.428Z,68.23
2022-12-03T08:59:29.407Z,70.67
2022-12-03T09:01:57.910Z,73.60
2022-12-03T09:04:31.095Z,66.60
2022-12-03T09:06:59.634Z,69.60
2022-12-03T09:09:27.671Z,63.60
2022-12-03T09:11:57.148Z,62.20
2022-12-03T09:14:25.069Z,71.67
2022-12-03T09:16:55.864Z,61.07
2022-12-03T09:19:24.838Z,65.23
2022-12-03T09:21:53.319Z,65.37
2022-12-03T09:24:21.645Z,68.80
2022-12-03T09:26:49.622Z,74.70
2022-12-03T09:29:18.880Z,63.27
2022-12-03T09:31:46.961Z,62.80
2022-12-03T09:34:14.989Z,64.70
2022-12-03T09:36:42.961Z,71.23
2022-12-03T09:39:10.856Z,59.67
2022-12-03T09:41:38.975Z,65.67
2022-12-03T09:44:10.902Z,62.93
2022-12-03T09:46:45.250Z,64.37
2022-12-03T09:49:16.617Z,73.53
2022-12-03T09:51:45.509Z,60.57
2022-12-03T09:54:23.651Z,64.20
2022-12-03T09:56:51.691Z,61.97
2022-12-03T09:59:19.974Z,63.30
2022-12-03T10:01:49.646Z,64.23
2022-12-03T10:04:17.883Z,72.43
2022-12-03T10:06:46.461Z,65.00
2022-12-03T10:09:20.962Z,63.47
2022-12-03T10:11:49.459Z,62.57
2022-12-03T10:14:19.113Z,62.43
2022-12-03T10:16:47.750Z,64.23
2022-12-03T10:19:23.384Z,61.50
2022-12-03T10:21:51.565Z,63.17
2022-12-03T10:24:22.054Z,62.43
2022-12-03T10:26:51.557Z,63.80
2022-12-03T10:29:21.808Z,64.23
2022-12-03T10:31:56.646Z,73.23
2022-12-03T10:34:32.032Z,63.73
2022-12-03T10:37:15.487Z,66.00
2022-12-03T10:39:58.769Z,65.43
2022-12-03T10:42:28.911Z,61.73
2022-12-03T10:45:19.248Z,64.03
2022-12-03T10:48:03.776Z,62.23
2022-12-03T10:50:33.793Z,62.10
2022-12-03T10:53:01.756Z,62.30
2022-12-03T10:55:35.324Z,64.90
2022-12-03T10:58:03.409Z,67.83
2022-12-03T11:00:31.369Z,71.00
2022-12-03T11:02:59.301Z,63.97
2022-12-03T11:05:28.565Z,63.70
2022-12-03T11:07:58.222Z,67.10
2022-12-03T11:10:26.569Z,69.37
2022-12-03T11:13:43.467Z,65.43
2022-12-03T11:16:11.750Z,67.50
2022-12-03T11:18:59.298Z,79.50
2022-12-03T11:21:27.321Z,63.67
2022-12-03T11:24:18.672Z,65.90
2022-12-03T11:27:26.239Z,64.27
2022-12-03T11:30:02.071Z,67.93
2022-12-03T11:33:00.886Z,70.47
2022-12-03T11:35:36.764Z,64.20
2022-12-03T11:38:38.175Z,67.27
2022-12-03T11:41:12.426Z,62.00
2022-12-03T11:44:01.379Z,58.33
2022-12-03T11:46:39.206Z,63.07
2022-12-03T11:49:29.840Z,57.17
2022-12-03T11:51:58.754Z,62.90
2022-12-03T11:54:27.213Z,67.80
2022-12-03T11:56:57.229Z,64.47
2022-12-03T11:59:25.133Z,63.03
2022-12-03T12:01:53.060Z,63.13
2022-12-03T12:04:31.079Z,62.03
2022-12-03T12:06:59.196Z,63.33
2022-12-03T12:09:49.690Z,64.43
2022-12-03T12:12:30.085Z,65.90
2022-12-03T12:14:58.828Z,63.27
2022-12-03T12:17:34.336Z,62.70
2022-12-03T12:20:25.605Z,67.73
2022-12-03T12:22:54.442Z,67.23
2022-12-03T12:25:41.345Z,64.63
2022-12-03T12:28:11.069Z,69.57
2022-12-03T12:30:40.318Z,66.10
2022-12-03T12:33:15.261Z,67.47
2022-12-03T12:35:43.300Z,64.33
2022-12-03T12:38:17.585Z,63.60
2022-12-03T12:40:49.076Z,66.87
2022-12-03T12:43:24.957Z,62.67
2022-12-03T12:46:46.211Z,63.90
2022-12-03T12:49:02.603Z,71.07
2022-12-03T12:51:30.841Z,70.80
2022-12-03T12:53:58.901Z,65.60
2022-12-03T12:56:30.194Z,65.70
2022-12-03T12:59:10.457Z,70.97
2022-12-03T13:01:38.561Z,65.83
2022-12-03T13:04:12.761Z,67.17
2022-12-03T13:06:41.234Z,65.70
2022-12-03T13:09:15.937Z,64.80
2022-12-03T13:11:45.921Z,67.47
2022-12-03T13:14:18.124Z,68.57
2022-12-03T13:16:47.484Z,65.53
2022-12-03T13:19:23.669Z,67.13
2022-12-03T13:21:53.609Z,63.53
2022-12-03T13:24:31.151Z,68.73
2022-12-03T13:27:00.561Z,66.33
2022-12-03T13:29:29.904Z,63.90
2022-12-03T13:32:00.069Z,64.03
2022-12-03T13:34:29.422Z,68.37
2022-12-03T13:36:58.731Z,73.53
2022-12-03T13:39:33.111Z,68.20
2022-12-03T13:42:34.145Z,74.93
2022-12-03T13:45:29.329Z,70.73
2022-12-03T13:47:59.950Z,66.70
2022-12-03T13:50:35.262Z,67.33
2022-12-03T13:53:10.614Z,80.80
2022-12-03T13:55:43.450Z,96.30
2022-12-03T13:58:11.450Z,74.83
2022-12-03T14:00:40.806Z,81.30
2022-12-03T14:03:08.789Z,72.37
2022-12-03T14:05:36.760Z,80.53
2022-12-03T14:08:06.134Z,76.47
2022-12-03T14:10:34.249Z,99.73
2022-12-03T14:13:02.216Z,76.87
2022-12-03T14:15:30.128Z,71.93
2022-12-03T14:17:59.457Z,78.37
2022-12-03T14:20:27.454Z,78.17
2022-12-03T14:22:59.206Z,75.13
2022-12-03T14:25:27.957Z,74.77
2022-12-03T14:27:55.896Z,76.57
2022-12-03T14:30:23.776Z,69.03
2022-12-03T14:32:51.845Z,75.63
2022-12-03T14:35:21.104Z,107.80
2022-12-03T14:37:49.023Z,73.17
2022-12-03T14:40:21.401Z,91.10
2022-12-03T14:42:50.003Z,76.63
2022-12-03T14:45:17.938Z,78.13
2022-12-03T14:47:45.820Z,126.73
2022-12-03T14:50:14.407Z,107.87
2022-12-03T14:52:43.882Z,79.00
2022-12-03T14:55:12.001Z,85.67
2022-12-03T14:57:40.022Z,78.97
2022-12-03T15:00:09.083Z,111.93
2022-12-03T15:02:37.038Z,132.83
2022-12-03T15:05:05.256Z,79.93
2022-12-03T15:07:33.450Z,76.43
2022-12-03T15:10:02.801Z,90.90
2022-12-03T15:12:31.596Z,76.90
2022-12-03T15:14:59.594Z,121.17
2022-12-03T15:17:31.594Z,74.83
2022-12-03T15:20:00.375Z,105.57
2022-12-03T15:22:28.276Z,91.40
2022-12-03T15:24:56.240Z,80.33
2022-12-03T15:27:25.551Z,84.97
2022-12-03T15:29:53.678Z,81.03
2022-12-03T15:32:21.719Z,80.27
2022-12-03T15:34:51.373Z,82.30
2022-12-03T15:37:19.313Z,93.57
2022-12-03T15:39:48.851Z,84.57
2022-12-03T15:42:19.506Z,96.97
2022-12-03T15:44:48.994Z,119.17
2022-12-03T15:47:16.973Z,83.80
2022-12-03T15:49:44.898Z,98.60
2022-12-03T15:52:12.888Z,93.63
2022-12-03T15:54:40.862Z,90.20
2022-12-03T15:57:08.738Z,84.63
2022-12-03T15:59:36.694Z,98.47
2022-12-03T16:02:06.154Z,83.60
2022-12-03T16:04:34.183Z,82.53
2022-12-03T16:07:02.160Z,82.50
2022-12-03T16:09:30.083Z,92.53
2022-12-03T16:11:58.022Z,88.90
2022-12-03T16:14:25.966Z,113.50
2022-12-03T16:16:55.066Z,92.70
2022-12-03T16:19:24.362Z,105.03
2022-12-03T16:21:52.261Z,95.43
2022-12-03T16:24:20.183Z,99.77
2022-12-03T16:26:48.105Z,100.37
2022-12-03T16:29:16.060Z,111.80
2022-12-03T16:31:44.372Z,127.07
2022-12-03T16:34:12.348Z,104.60
2022-12-03T16:36:41.742Z,95.70
2022-12-03T16:39:09.649Z,125.57
2022-12-03T16:41:37.757Z,125.67
2022-12-03T16:44:06.408Z,125.00
2022-12-03T16:46:34.467Z,109.40
2022-12-03T16:49:03.867Z,134.63
2022-12-03T16:51:31.763Z,97.97
2022-12-03T16:54:01.120Z,97.10
2022-12-03T16:56:29.016Z,105.43
2022-12-03T16:58:57.972Z,91.23
2022-12-03T17:01:25.846Z,92.40
2022-12-03T17:03:53.757Z,102.53
2022-12-03T17:06:21.662Z,96.07
2022-12-03T17:08:50.205Z,88.57
2022-12-03T17:11:19.802Z,101.53
2022-12-03T17:13:47.939Z,106.10
2022-12-03T17:16:15.971Z,88.70
2022-12-03T17:18:44.011Z,86.63
2022-12-03T17:21:12.209Z,93.87
2022-12-03T17:23:40.232Z,105.30
2022-12-03T17:26:08.183Z,86.63
2022-12-03T17:28:37.606Z,103.37
2022-12-03T17:31:05.796Z,103.73
2022-12-03T17:33:33.838Z,119.07
2022-12-03T17:36:01.802Z,103.77
2022-12-03T17:38:32.805Z,93.93
2022-12-03T17:41:05.414Z,89.07
2022-12-03T17:43:33.314Z,128.57
2022-12-03T17:46:02.624Z,106.90
2022-12-03T17:48:31.395Z,98.37
2022-12-03T17:50:59.541Z,112.83
2022-12-03T17:53:27.420Z,84.97
2022-12-03T17:55:55.758Z,90.83
2022-12-03T17:58:23.719Z,86.00
2022-12-03T18:00:51.636Z,85.43
2022-12-03T18:03:20.938Z,85.07
2022-12-03T18:05:48.889Z,84.17
2022-12-03T18:08:17.002Z,88.70
2022-12-03T18:10:45.048Z,82.30
2022-12-03T18:13:12.986Z,89.97
2022-12-03T18:15:40.972Z,85.63
2022-12-03T18:18:08.949Z,84.23
2022-12-03T18:20:38.413Z,82.33
2022-12-03T18:23:06.793Z,78.80
2022-12-03T18:25:34.815Z,99.43
2022-12-03T18:28:02.772Z,97.20
2022-12-03T18:30:30.712Z,86.40
2022-12-03T18:32:58.648Z,100.77
2022-12-03T18:35:26.701Z,136.97
2022-12-03T18:37:56.077Z,81.00
2022-12-03T18:40:27.163Z,80.00
2022-12-03T18:42:55.163Z,84.57
2022-12-03T18:45:23.075Z,89.57
2022-12-03T18:47:51.203Z,81.70
2022-12-03T18:50:19.142Z,108.53
2022-12-03T18:52:47.030Z,80.93
2022-12-03T18:55:19.731Z,94.73
2022-12-03T18:57:47.680Z,80.40
2022-12-03T19:00:17.086Z,83.80
2022-12-03T19:03:02.420Z,105.87
2022-12-03T19:05:32.785Z,106.60
2022-12-03T19:08:00.945Z,111.87
2022-12-03T19:10:30.428Z,100.70
2022-12-03T19:12:58.525Z,90.30
2022-12-03T19:15:26.470Z,88.97
2022-12-03T19:17:54.392Z,129.73
2022-12-03T19:20:22.315Z,92.00
2022-12-03T19:22:50.216Z,104.83
2022-12-03T19:25:18.287Z,87.43
2022-12-03T19:27:49.300Z,96.73
2022-12-03T19:30:17.743Z,110.23
2022-12-03T19:32:45.879Z,107.67
2022-12-03T19:35:13.773Z,92.70
2022-12-03T19:37:41.756Z,105.17
2022-12-03T19:40:11.360Z,85.63
2022-12-03T19:42:39.576Z,89.53
2022-12-03T19:45:11.616Z,160.80
2022-12-03T19:47:40.232Z,92.80
2022-12-03T19:50:09.683Z,153.53
2022-12-03T19:52:37.822Z,95.53
2022-12-03T19:55:06.506Z,86.07
2022-12-03T19:57:34.412Z,95.40
2022-12-03T20:00:02.380Z,91.37
2022-12-03T20:02:41.623Z,92.40
2022-12-03T20:05:09.742Z,89.93
2022-12-03T20:07:37.914Z,116.70
2022-12-03T20:10:07.306Z,109.83
2022-12-03T20:12:35.347Z,102.33
2022-12-03T20:15:03.282Z,99.77
2022-12-03T20:17:31.175Z,141.67
2022-12-03T20:20:00.515Z,119.87
2022-12-03T20:22:28.383Z,98.20
2022-12-03T20:24:56.280Z,129.90
2022-12-03T20:27:24.197Z,106.13
2022-12-03T20:29:52.131Z,157.50
2022-12-03T20:32:20.382Z,149.70
2022-12-03T20:34:49.699Z,175.10
2022-12-03T20:37:19.107Z,106.87
2022-12-03T20:39:47.040Z,114.37
2022-12-03T20:42:14.945Z,139.33
2022-12-03T20:44:42.869Z,111.93
2022-12-03T20:47:10.823Z,165.37
2022-12-03T20:49:40.323Z,101.80
2022-12-03T20:52:08.198Z,126.90
2022-12-03T20:54:37.623Z,160.93
2022-12-03T20:57:05.679Z,118.90
2022-12-03T20:59:33.728Z,118.67
2022-12-03T21:02:01.849Z,136.23
2022-12-03T21:04:30.006Z,114.83
2022-12-03T21:06:57.949Z,115.60
2022-12-03T21:09:26.040Z,160.47
2022-12-03T21:11:55.379Z,139.03
2022-12-03T21:14:23.363Z,112.20
2022-12-03T21:17:08.343Z,124.43
2022-12-03T21:19:37.385Z,124.27
2022-12-03T21:22:05.745Z,130.37
2022-12-03T21:24:33.663Z,130.90
2022-12-03T21:27:03.292Z,130.60
2022-12-03T21:29:31.378Z,175.40
2022-12-03T21:31:59.567Z,115.40
2022-12-03T21:34:32.800Z,108.13
2022-12-03T21:37:04.073Z,135.43
2022-12-03T21:39:32.015Z,122.13
2022-12-03T21:42:33.271Z,118.83
2022-12-03T21:44:49.351Z,121.67
2022-12-03T21:47:22.380Z,152.97
2022-12-03T21:49:50.659Z,113.23
2022-12-03T21:52:18.650Z,124.07
2022-12-03T21:54:46.790Z,124.53
2022-12-03T21:57:14.729Z,125.27
2022-12-03T21:59:42.614Z,156.87
2022-12-03T22:02:12.305Z,120.17
2022-12-03T22:04:40.880Z,116.57
2022-12-03T22:07:08.805Z,128.77
2022-12-03T22:09:36.883Z,178.20
2022-12-03T22:12:05.364Z,139.93
2022-12-03T22:14:33.331Z,167.20
2022-12-03T22:17:01.324Z,113.83
2022-12-03T22:19:30.671Z,115.87
2022-12-03T22:21:58.569Z,125.53
2022-12-03T22:24:26.595Z,131.97
2022-12-03T22:26:55.039Z,159.73
2022-12-03T22:29:23.139Z,97.83
2022-12-03T22:31:51.031Z,109.67
2022-12-03T22:34:18.962Z,173.97
2022-12-03T22:36:48.303Z,141.13
2022-12-03T22:39:16.351Z,103.00
2022-12-03T22:41:44.270Z,121.30
2022-12-03T22:44:12.198Z,109.73
2022-12-03T22:46:40.286Z,156.30
2022-12-03T22:49:13.835Z,102.53
2022-12-03T22:51:41.996Z,125.47
2022-12-03T22:54:12.527Z,103.30
2022-12-03T22:56:40.935Z,104.80
2022-12-03T22:59:08.921Z,110.30
2022-12-03T23:01:38.970Z,169.40
2022-12-03T23:04:08.887Z,110.33
2022-12-03T23:06:37.842Z,89.57
2022-12-03T23:09:07.298Z,117.97
2022-12-03T23:11:37.375Z,119.93
2022-12-03T23:14:05.526Z,118.07
2022-12-03T23:16:34.433Z,103.00
2022-12-03T23:19:03.616Z,118.77
2022-12-03T23:21:34.109Z,111.40
2022-12-03T23:24:04.065Z,157.00
2022-12-03T23:26:37.667Z,112.93
2022-12-03T23:29:06.073Z,112.07
2022-12-03T23:31:35.033Z,89.33
2022-12-03T23:34:04.057Z,108.33
2022-12-03T23:36:33.849Z,105.47
2022-12-03T23:39:02.129Z,112.87
2022-12-03T23:41:30.076Z,112.40
2022-12-03T23:43:59.314Z,93.13
2022-12-03T23:46:28.513Z,77.90
2022-12-03T23:48:58.546Z,138.10
2022-12-03T23:51:26.785Z,83.73
2022-12-03T23:53:56.164Z,87.70
2022-12-03T23:56:26.648Z,115.33
2022-12-03T23:58:54.772Z,130.40
